Time;durP1;ratioP1;P1;durP2;ratioP2;P2;SDS_P1;SDS_P2;PMS_P1;PMS_P2;Temp;Humidity;BMP_temperature;BMP_pressure;BME280_temperature;BME280_humidity;BME280_pressure;Samples;Min_cycle;Max_cycle;Signal;HPM_P1;HPM_P2
2021/05/25 00:01:31;;;;;;;1.08;0.73;;;;;;;9.96;80.03;100045.16;5009438;28;20054;-60
2021/05/25 00:03:59;;;;;;;3.25;0.70;;;;;;;9.95;79.95;100043.44;5011686;28;20050;-59
2021/05/25 00:06:26;;;;;;;2.85;0.77;;;;;;;9.91;79.88;100041.91;5006298;28;20053;-59
2021/05/25 00:08:52;;;;;;;4.40;1.00;;;;;;;9.90;79.59;100054.28;5004161;28;20183;-60
2021/05/25 00:11:19;;;;;;;1.40;0.80;;;;;;;9.93;79.59;100048.81;4984871;28;20050;-60
2021/05/25 00:13:45;;;;;;;4.55;1.00;;;;;;;9.87;80.15;100059.72;4999509;28;20054;-61
2021/05/25 00:16:12;;;;;;;1.02;0.68;;;;;;;9.86;79.71;100055.34;5000776;28;20134;-60
2021/05/25 00:18:38;;;;;;;1.90;0.82;;;;;;;9.82;79.26;100045.84;5013178;28;20053;-61
2021/05/25 00:21:06;;;;;;;2.33;0.90;;;;;;;9.83;79.20;100050.19;5018543;28;20092;-62
2021/05/25 00:23:33;;;;;;;2.47;0.63;;;;;;;9.82;78.59;100054.63;5004946;28;20046;-63
2021/05/25 00:25:59;;;;;;;1.67;0.80;;;;;;;9.78;78.96;100062.78;4989787;28;20073;-61
2021/05/25 00:28:26;;;;;;;0.98;0.80;;;;;;;9.78;78.52;100062.78;5004926;28;20093;-61
2021/05/25 00:30:52;;;;;;;2.38;1.02;;;;;;;9.73;78.38;100070.09;5003585;28;20050;-60
2021/05/25 00:33:19;;;;;;;6.45;0.98;;;;;;;9.71;78.40;100064.03;4989338;28;20242;-62
2021/05/25 00:35:48;;;;;;;3.33;1.30;;;;;;;9.69;77.72;100063.25;5015288;28;20046;-61
2021/05/25 00:38:14;;;;;;;1.50;0.80;;;;;;;9.68;77.61;100064.19;4990321;28;20060;-62
2021/05/25 00:40:44;;;;;;;1.27;0.88;;;;;;;9.65;78.22;100065.16;4996321;28;20103;-62
2021/05/25 00:43:10;;;;;;;0.63;0.60;;;;;;;9.64;77.49;100071.38;5001105;28;20137;-61
2021/05/25 00:45:37;;;;;;;2.78;0.75;;;;;;;9.57;77.80;100072.63;4996368;28;20125;-59
2021/05/25 00:48:05;;;;;;;2.63;1.15;;;;;;;9.56;77.83;100070.06;5005566;28;20077;-60
2021/05/25 00:50:31;;;;;;;3.33;1.02;;;;;;;9.55;77.57;100077.13;5010621;28;20544;-59
2021/05/25 00:53:02;;;;;;;3.83;0.80;;;;;;;9.58;77.23;100076.13;5005217;28;20143;-60
2021/05/25 00:55:33;;;;;;;3.63;0.80;;;;;;;9.59;76.50;100073.41;5010622;28;20054;-63
2021/05/25 00:58:02;;;;;;;2.70;0.82;;;;;;;9.50;76.53;100079.97;4991754;28;20089;-60
2021/05/25 01:00:34;;;;;;;1.87;1.17;;;;;;;9.47;76.21;100084.56;5001749;28;20062;-60
2021/05/25 01:03:01;;;;;;;2.90;0.80;;;;;;;9.38;76.79;100077.94;4998509;28;20487;-61
2021/05/25 01:05:28;;;;;;;1.58;1.10;;;;;;;9.41;76.86;100079.56;4995342;28;20060;-60
2021/05/25 01:07:55;;;;;;;3.05;1.10;;;;;;;9.38;76.50;100077.06;5014015;28;20054;-59
2021/05/25 01:10:29;;;;;;;1.98;1.08;;;;;;;9.39;76.55;100071.72;4995936;28;20054;-60
2021/05/25 01:13:03;;;;;;;3.80;0.90;;;;;;;9.49;76.05;100083.56;4995762;28;20125;-60
2021/05/25 01:15:30;;;;;;;1.70;1.08;;;;;;;9.55;75.96;100082.41;5022401;28;20122;-59
2021/05/25 01:17:59;;;;;;;4.13;1.00;;;;;;;9.62;75.36;100075.03;5005976;28;20060;-59
2021/05/25 01:20:29;;;;;;;3.20;1.17;;;;;;;9.64;75.51;100075.81;5021834;28;20148;-62
2021/05/25 01:22:56;;;;;;;5.00;1.30;;;;;;;9.66;75.02;100071.31;5001533;28;20113;-61
2021/05/25 01:25:25;;;;;;;2.78;1.00;;;;;;;9.73;74.36;100075.41;5014028;28;20052;-61
2021/05/25 01:27:54;;;;;;;1.58;0.93;;;;;;;9.79;74.64;100080.38;5006721;28;20121;-61
2021/05/25 01:30:24;;;;;;;1.17;0.90;;;;;;;9.78;73.60;100074.22;5007671;28;20053;-61
2021/05/25 01:32:51;;;;;;;3.40;0.85;;;;;;;9.80;73.56;100082.94;5018191;28;20057;-61
2021/05/25 01:35:19;;;;;;;3.97;1.10;;;;;;;9.80;73.26;100079.44;5014459;28;20060;-60
2021/05/25 01:37:46;;;;;;;1.35;1.00;;;;;;;9.79;72.20;100070.66;4991157;28;20045;-61
2021/05/25 01:40:14;;;;;;;2.50;1.13;;;;;;;9.84;72.91;100083.66;5019059;28;20058;-62
2021/05/25 01:42:41;;;;;;;1.65;0.95;;;;;;;9.79;72.93;100069.78;4994381;28;20046;-62
2021/05/25 01:45:15;;;;;;;2.47;1.00;;;;;;;9.77;73.25;100075.16;5023255;28;20046;-62
2021/05/25 01:47:42;;;;;;;5.22;1.40;;;;;;;9.81;72.51;100067.94;5002026;28;20054;-60
2021/05/25 01:50:12;;;;;;;3.70;0.93;;;;;;;9.84;72.50;100073.06;4999796;28;20097;-62
2021/05/25 01:52:53;;;;;;;4.10;1.37;;;;;;;9.89;72.41;100070.22;5015886;28;20089;-60
2021/05/25 01:55:36;;;;;;;1.75;0.88;;;;;;;9.92;72.25;100073.53;5007609;28;20588;-60
2021/05/25 01:58:15;;;;;;;3.35;0.70;;;;;;;10.01;71.36;100069.59;5006823;28;20566;-61
2021/05/25 02:00:54;;;;;;;1.30;0.80;;;;;;;10.01;71.65;100069.59;5018194;28;20045;-60
2021/05/25 02:03:38;;;;;;;1.35;0.70;;;;;;;10.03;71.55;100073.03;5003137;28;20053;-60
2021/05/25 02:06:19;;;;;;;2.33;0.90;;;;;;;10.04;71.71;100080.88;5012683;28;20053;-60
2021/05/25 02:08:46;;;;;;;4.43;0.80;;;;;;;10.11;71.07;100070.84;4992248;28;20048;-61
2021/05/25 02:11:12;;;;;;;2.45;0.95;;;;;;;10.16;70.97;100076.78;5012940;28;20077;-61
2021/05/25 02:13:42;;;;;;;1.23;0.68;;;;;;;10.18;70.98;100073.16;5009682;28;20054;-60
2021/05/25 02:16:12;;;;;;;1.88;0.90;;;;;;;10.18;70.52;100074.91;4996527;28;20077;-61
2021/05/25 02:18:45;;;;;;;2.22;0.90;;;;;;;10.18;70.81;100080.19;5006818;28;22020;-62
2021/05/25 02:21:16;;;;;;;2.70;0.68;;;;;;;10.14;70.95;100075.97;4967447;28;20075;-60
2021/05/25 02:23:44;;;;;;;1.20;0.60;;;;;;;10.13;70.75;100082.22;5004754;28;20133;-61
2021/05/25 02:26:14;;;;;;;2.92;0.65;;;;;;;10.10;70.66;100082.34;5001794;28;20050;-62
2021/05/25 02:28:41;;;;;;;0.65;0.55;;;;;;;10.07;71.21;100077.25;5008353;28;20056;-60
2021/05/25 02:31:09;;;;;;;3.60;0.70;;;;;;;10.06;70.91;100080.81;5014235;28;20078;-61
2021/05/25 02:33:36;;;;;;;3.05;0.90;;;;;;;10.15;71.12;100083.00;5013939;28;20057;-61
2021/05/25 02:36:03;;;;;;;0.82;0.80;;;;;;;10.18;71.00;100086.38;5006535;28;20050;-63
2021/05/25 02:38:31;;;;;;;1.95;0.80;;;;;;;10.17;70.46;100087.28;5007973;28;20100;-61
2021/05/25 02:40:58;;;;;;;2.38;1.00;;;;;;;10.15;70.35;100094.44;5002221;28;20050;-59
2021/05/25 02:43:27;;;;;;;3.75;0.63;;;;;;;10.13;70.61;100084.84;5003400;28;20133;-60
2021/05/25 02:45:54;;;;;;;1.55;0.90;;;;;;;10.08;70.87;100081.56;5020268;28;20053;-61
2021/05/25 02:48:22;;;;;;;2.15;0.80;;;;;;;10.09;71.25;100085.94;5009828;28;20452;-61
2021/05/25 02:50:50;;;;;;;2.20;0.70;;;;;;;10.06;71.18;100089.63;5019522;28;20054;-62
2021/05/25 02:53:17;;;;;;;2.58;0.85;;;;;;;10.05;71.28;100087.91;4990621;28;20069;-60
2021/05/25 02:55:44;;;;;;;1.73;0.70;;;;;;;10.09;71.36;100091.22;5012722;28;20050;-62
2021/05/25 02:58:12;;;;;;;0.95;0.60;;;;;;;10.09;71.79;100094.72;4998472;28;20114;-59
2021/05/25 03:00:41;;;;;;;1.27;0.63;;;;;;;10.10;71.63;100093.78;5009681;28;20564;-63
2021/05/25 03:03:09;;;;;;;2.53;0.90;;;;;;;10.05;71.18;100087.91;5018872;28;20050;-61
2021/05/25 03:05:37;;;;;;;1.65;0.73;;;;;;;10.05;71.45;100098.47;5011076;28;20050;-61
2021/05/25 03:08:06;;;;;;;3.22;0.70;;;;;;;10.10;71.46;100107.03;5013428;28;20054;-62
2021/05/25 03:10:35;;;;;;;1.02;0.52;;;;;;;10.08;71.15;100100.94;5018169;28;20075;-62
2021/05/25 03:13:03;;;;;;;4.68;0.90;;;;;;;10.15;70.73;100114.75;4985282;28;20072;-62
2021/05/25 03:15:32;;;;;;;3.40;0.70;;;;;;;10.13;70.36;100106.88;5014678;28;20109;-61
2021/05/25 03:17:59;;;;;;;3.03;0.60;;;;;;;10.11;70.48;100106.09;5008111;28;20049;-60
2021/05/25 03:20:26;;;;;;;2.63;0.60;;;;;;;10.11;70.03;100113.16;5011857;28;20113;-60
2021/05/25 03:22:53;;;;;;;2.42;0.85;;;;;;;10.17;69.73;100113.75;5016318;28;20102;-62
2021/05/25 03:25:19;;;;;;;2.72;0.90;;;;;;;10.17;70.41;100110.22;5004231;28;20117;-61
2021/05/25 03:27:47;;;;;;;3.65;0.90;;;;;;;10.09;70.18;100107.94;5019583;28;20164;-59
2021/05/25 03:30:20;;;;;;;2.38;0.73;;;;;;;10.02;70.34;100098.63;5011158;28;20096;-62
2021/05/25 03:32:47;;;;;;;0.95;0.57;;;;;;;10.01;70.34;100120.72;4996633;28;20065;-62
2021/05/25 03:35:16;;;;;;;1.60;0.55;;;;;;;10.08;69.71;100124.75;5020597;28;20476;-59
2021/05/25 03:37:43;;;;;;;1.75;0.68;;;;;;;10.06;69.25;100121.34;5004404;28;20124;-62
2021/05/25 03:40:11;;;;;;;4.22;0.88;;;;;;;10.07;69.75;100116.94;4990180;28;20109;-61
2021/05/25 03:42:38;;;;;;;1.50;0.70;;;;;;;10.07;69.33;100117.75;4991875;28;20045;-61
2021/05/25 03:45:06;;;;;;;2.00;0.90;;;;;;;10.05;69.67;100117.00;4998977;28;20073;-62
2021/05/25 03:47:33;;;;;;;4.57;1.25;;;;;;;10.04;69.84;100117.94;5020820;28;20095;-63
2021/05/25 03:50:09;;;;;;;4.78;1.10;;;;;;;10.06;69.14;100121.34;4999276;28;20123;-62
2021/05/25 03:52:38;;;;;;;2.63;0.68;;;;;;;10.04;69.44;100123.22;5017158;28;20054;-60
2021/05/25 03:55:14;;;;;;;2.28;0.60;;;;;;;10.02;69.69;100126.88;5012160;28;20124;-62
2021/05/25 04:00:09;;;;;;;1.23;0.55;;;;;;;10.05;70.30;100127.59;5020683;28;20175;-63
2021/05/25 04:02:36;;;;;;;3.67;0.90;;;;;;;10.10;70.30;100133.47;4995003;28;20054;-60
2021/05/25 04:05:04;;;;;;;0.90;0.70;;;;;;;10.08;70.38;100124.75;5017594;28;20041;-61
2021/05/25 04:07:30;;;;;;;2.40;0.70;;;;;;;10.15;70.07;100139.41;4994775;28;20088;-60
2021/05/25 04:09:57;;;;;;;0.63;0.50;;;;;;;10.15;69.81;100130.63;4982402;28;20072;-61
2021/05/25 04:12:24;;;;;;;3.13;0.70;;;;;;;10.14;69.45;100135.06;5009550;28;20054;-61
2021/05/25 04:14:50;;;;;;;5.88;0.80;;;;;;;10.10;69.34;100129.97;5007367;28;20068;-61
2021/05/25 04:17:17;;;;;;;3.90;0.90;;;;;;;10.08;69.44;100123.91;5017693;28;20050;-60
2021/05/25 04:19:44;;;;;;;3.50;0.85;;;;;;;10.15;69.19;100122.69;5009957;28;20041;-62
2021/05/25 04:22:10;;;;;;;5.45;1.15;;;;;;;10.15;69.18;100115.59;5009484;28;20070;-62
2021/05/25 04:24:38;;;;;;;2.75;0.88;;;;;;;10.18;68.53;100126.06;5015070;28;20049;-62
2021/05/25 04:27:04;;;;;;;5.45;0.73;;;;;;;10.19;67.89;100125.13;5006617;28;20118;-62
2021/05/25 04:29:31;;;;;;;2.35;0.80;;;;;;;10.26;67.76;100123.03;5005800;28;20060;-62
2021/05/25 04:31:58;;;;;;;2.40;0.57;;;;;;;10.25;67.85;100121.31;5000587;28;20050;-62
2021/05/25 04:34:25;;;;;;;2.20;0.60;;;;;;;10.32;67.76;100127.16;5007029;28;20078;-60
2021/05/25 04:36:51;;;;;;;1.95;0.75;;;;;;;10.30;67.56;100132.53;5018978;28;20048;-60
2021/05/25 04:39:18;;;;;;;5.45;0.70;;;;;;;10.31;67.20;100134.25;5003938;28;20114;-61
2021/05/25 04:41:44;;;;;;;2.20;0.80;;;;;;;10.27;67.58;100123.88;5018725;28;20052;-61
2021/05/25 04:44:11;;;;;;;3.75;0.95;;;;;;;10.34;67.76;100130.59;4999597;28;20054;-60
2021/05/25 04:46:38;;;;;;;2.05;0.70;;;;;;;10.37;67.35;100135.75;5005721;28;20398;-60
2021/05/25 04:49:04;;;;;;;2.15;0.73;;;;;;;10.48;66.26;100136.06;5013463;28;20042;-60
2021/05/25 04:51:31;;;;;;;1.95;0.55;;;;;;;10.39;66.43;100132.06;4985363;28;20081;-60
2021/05/25 04:53:58;;;;;;;5.00;0.80;;;;;;;10.42;67.20;100139.84;5019110;28;20064;-60
2021/05/25 04:56:24;;;;;;;3.05;0.77;;;;;;;10.52;66.34;100127.88;5011464;28;20173;-61
2021/05/25 04:58:51;;;;;;;1.80;0.90;;;;;;;10.63;65.63;100147.66;5005203;28;20087;-60
2021/05/25 05:01:17;;;;;;;3.13;0.80;;;;;;;10.75;65.83;100150.53;5010334;28;20141;-61
2021/05/25 05:03:44;;;;;;;2.92;0.85;;;;;;;10.80;67.19;100150.28;5006331;28;20452;-62
2021/05/25 05:06:12;;;;;;;3.05;1.00;;;;;;;10.78;67.09;100137.13;5020030;28;20082;-61
2021/05/25 05:08:43;;;;;;;1.98;1.02;;;;;;;10.72;67.00;100142.72;5001832;28;20109;-61
2021/05/25 05:11:10;;;;;;;4.82;0.93;;;;;;;10.71;67.04;100141.00;4995623;28;20092;-61
2021/05/25 05:13:37;;;;;;;2.25;0.68;;;;;;;10.68;67.17;100145.63;5010481;28;20057;-60
2021/05/25 05:16:04;;;;;;;2.33;0.90;;;;;;;10.71;66.51;100133.06;5012168;28;20045;-62
2021/05/25 05:18:31;;;;;;;2.90;0.50;;;;;;;11.03;65.52;100136.69;5005094;28;20054;-61
2021/05/25 05:20:57;;;;;;;2.35;0.60;;;;;;;11.13;64.23;100124.69;4994594;28;20054;-61
2021/05/25 05:23:24;;;;;;;1.85;0.88;;;;;;;11.28;64.34;100136.25;5007543;28;20077;-60
2021/05/25 05:25:50;;;;;;;2.78;0.82;;;;;;;11.23;64.01;100131.19;5021637;28;20049;-61
2021/05/25 05:28:17;;;;;;;2.00;1.08;;;;;;;11.14;63.26;100138.78;5008615;28;20055;-60
2021/05/25 05:30:43;;;;;;;3.08;0.90;;;;;;;11.05;64.20;100141.91;4991662;28;20049;-59
2021/05/25 05:33:10;;;;;;;5.75;2.45;;;;;;;11.11;65.13;100149.53;5017167;28;20046;-61
2021/05/25 05:35:37;;;;;;;3.03;0.60;;;;;;;11.20;65.35;100151.69;5014525;28;20034;-62
2021/05/25 05:38:05;;;;;;;2.92;0.80;;;;;;;11.21;66.33;100150.75;5015966;28;20054;-62
2021/05/25 05:40:34;;;;;;;3.67;0.80;;;;;;;11.07;68.40;100153.28;5006435;28;20104;-61
2021/05/25 05:43:06;;;;;;;2.10;0.90;;;;;;;10.95;68.73;100162.75;5021452;28;20046;-61
2021/05/25 05:45:34;;;;;;;3.05;0.90;;;;;;;10.81;69.50;100163.47;5001927;28;20045;-62
2021/05/25 05:48:01;;;;;;;1.95;0.90;;;;;;;10.69;69.96;100163.25;5008333;28;20133;-60
2021/05/25 05:50:28;;;;;;;1.63;0.70;;;;;;;10.59;70.39;100159.31;5022687;28;20503;-60
2021/05/25 05:52:56;;;;;;;3.17;1.02;;;;;;;10.58;70.63;100161.13;5006411;28;20102;-61
2021/05/25 05:55:23;;;;;;;2.47;0.90;;;;;;;10.51;70.84;100159.72;5015299;28;20147;-61
2021/05/25 05:57:52;;;;;;;1.98;0.85;;;;;;;10.41;71.94;100169.03;5000042;28;20057;-61
2021/05/25 06:00:19;;;;;;;4.15;1.00;;;;;;;10.39;71.69;100168.28;5008346;28;20046;-61
2021/05/25 06:02:46;;;;;;;2.15;0.98;;;;;;;10.41;71.85;100169.03;5011955;28;20054;-61
2021/05/25 06:05:13;;;;;;;3.47;1.00;;;;;;;10.49;72.22;100182.78;5007869;28;20110;-62
2021/05/25 06:07:42;;;;;;;2.85;0.88;;;;;;;10.64;70.23;100192.59;5021596;28;20140;-61
2021/05/25 06:10:10;;;;;;;1.73;0.60;;;;;;;10.78;69.38;100178.66;4994029;28;20113;-63
2021/05/25 06:12:36;;;;;;;2.13;0.70;;;;;;;11.06;68.88;100183.38;5009984;28;20038;-62
2021/05/25 06:15:05;;;;;;;2.45;1.00;;;;;;;11.87;68.57;100178.09;4996163;28;20153;-63
2021/05/25 06:17:32;;;;;;;2.97;0.80;;;;;;;12.43;64.15;100182.00;5008152;28;20084;-63
2021/05/25 06:19:59;;;;;;;4.35;0.82;;;;;;;12.71;61.32;100186.53;5000832;28;20115;-61
2021/05/25 06:22:25;;;;;;;6.15;0.70;;;;;;;12.65;62.74;100171.81;5009366;28;20635;-60
2021/05/25 06:24:52;;;;;;;1.38;0.80;;;;;;;12.14;64.67;100183.63;5000798;28;20081;-63
2021/05/25 06:27:18;;;;;;;1.38;0.60;;;;;;;11.79;66.12;100184.78;5012581;28;20137;-61
2021/05/25 06:29:46;;;;;;;2.67;0.68;;;;;;;11.58;65.86;100186.75;5005364;28;20052;-60
2021/05/25 06:32:12;;;;;;;3.85;0.88;;;;;;;11.88;66.32;100190.41;5016912;28;20113;-62
2021/05/25 06:34:39;;;;;;;1.60;0.55;;;;;;;12.50;66.16;100177.16;5005162;28;20100;-62
2021/05/25 06:37:08;;;;;;;2.45;0.70;;;;;;;12.86;62.86;100196.25;5011553;28;20049;-61
2021/05/25 06:39:35;;;;;;;2.08;0.50;;;;;;;12.67;63.09;100190.31;4995062;28;20066;-60
2021/05/25 06:42:02;;;;;;;4.70;0.70;;;;;;;12.35;64.94;100200.16;5006551;28;20050;-62
2021/05/25 06:44:31;;;;;;;0.85;0.60;;;;;;;12.10;65.37;100203.34;5014384;28;20053;-61
2021/05/25 06:46:59;;;;;;;2.70;1.35;;;;;;;12.03;65.97;100201.97;4986340;28;20077;-60
2021/05/25 06:49:26;;;;;;;4.00;0.52;;;;;;;12.00;64.62;100194.16;5009075;28;20058;-60
2021/05/25 06:51:53;;;;;;;3.40;0.63;;;;;;;11.97;65.13;100201.44;5016347;28;20050;-60
2021/05/25 06:54:20;;;;;;;1.90;0.60;;;;;;;11.82;65.73;100208.44;5012911;28;20058;-59
2021/05/25 06:56:46;;;;;;;1.10;0.43;;;;;;;11.54;66.01;100211.72;5014145;28;20054;-60
2021/05/25 06:59:13;;;;;;;1.42;0.40;;;;;;;11.37;66.33;100206.47;4999385;28;23507;-61
2021/05/25 07:01:40;;;;;;;1.23;0.50;;;;;;;11.23;66.15;100216.00;5008441;28;20045;-61
2021/05/25 07:04:07;;;;;;;2.90;0.60;;;;;;;11.14;67.48;100210.34;5001070;28;20046;-61
2021/05/25 07:06:34;;;;;;;1.23;0.40;;;;;;;11.18;67.71;100203.91;5004944;28;20065;-62
2021/05/25 07:09:00;;;;;;;2.88;0.70;;;;;;;11.19;67.18;100213.59;4989512;28;20100;-61
2021/05/25 07:23:40;;;;;;;1.23;0.50;;;;;;;11.19;68.17;100224.19;5011643;28;20064;-61
2021/05/25 07:27:02;;;;;;;1.35;0.40;;;;;;;11.33;66.90;100207.59;4998833;28;20105;-61
2021/05/25 07:29:44;;;;;;;1.77;0.40;;;;;;;11.50;66.18;100213.69;5013382;28;20112;-60
2021/05/25 07:32:11;;;;;;;1.77;0.57;;;;;;;11.57;65.77;100209.78;5012671;28;20109;-62
2021/05/25 07:34:38;;;;;;;1.70;0.40;;;;;;;11.53;65.47;100210.88;5009441;28;20104;-61
2021/05/25 07:37:04;;;;;;;0.70;0.30;;;;;;;11.51;65.29;100214.53;5013518;28;20073;-63
2021/05/25 07:39:31;;;;;;;2.08;0.50;;;;;;;11.45;66.33;100223.69;5004257;28;20129;-59
2021/05/25 07:41:58;;;;;;;1.77;0.45;;;;;;;11.52;66.75;100221.56;5007706;28;20050;-61
2021/05/25 07:44:24;;;;;;;2.25;0.68;;;;;;;11.54;66.61;100223.19;5001574;28;20085;-61
2021/05/25 07:46:52;;;;;;;2.00;0.60;;;;;;;11.52;66.88;100243.63;5006741;28;20133;-60
2021/05/25 07:49:19;;;;;;;3.17;0.40;;;;;;;11.53;67.14;100232.06;5008384;28;20192;-60
2021/05/25 07:51:50;;;;;;;1.27;0.63;;;;;;;11.49;66.75;100224.41;5003073;28;20054;-60
2021/05/25 07:54:17;;;;;;;1.75;0.70;;;;;;;11.40;67.14;100244.28;4988602;28;20129;-61
2021/05/25 07:56:44;;;;;;;0.55;0.40;;;;;;;11.27;68.21;100243.22;4997144;28;20393;-60
2021/05/25 07:59:28;;;;;;;2.70;0.50;;;;;;;11.29;71.49;100237.84;5002346;28;20064;-63
2021/05/25 08:01:56;;;;;;;0.80;0.70;;;;;;;11.40;68.14;100240.78;5000559;28;20054;-60
2021/05/25 08:04:24;;;;;;;2.15;0.40;;;;;;;11.35;69.26;100248.09;5012634;28;20515;-60
2021/05/25 08:06:56;;;;;;;1.92;0.50;;;;;;;11.63;67.25;100236.91;5013803;28;20141;-60
2021/05/25 08:09:24;;;;;;;3.78;0.40;;;;;;;11.87;66.13;100247.06;5001228;28;20050;-59
2021/05/25 08:11:51;;;;;;;1.38;0.45;;;;;;;11.92;65.72;100241.53;5005521;28;20443;-61
2021/05/25 08:14:17;;;;;;;1.23;0.43;;;;;;;12.08;65.03;100257.44;5015187;28;20062;-61
2021/05/25 08:16:45;;;;;;;1.73;0.30;;;;;;;12.09;64.24;100256.50;5014085;28;20054;-61
2021/05/25 08:19:26;;;;;;;1.23;0.30;;;;;;;12.02;64.38;100263.09;5016854;28;20859;-61
2021/05/25 08:21:52;;;;;;;0.90;0.28;;;;;;;11.94;64.21;100253.78;5013809;28;20405;-61
2021/05/25 08:24:40;;;;;;;0.95;0.28;;;;;;;11.85;64.64;100258.69;5012878;28;20053;-61
2021/05/25 08:27:08;;;;;;;1.17;0.43;;;;;;;11.77;64.39;100252.97;4997721;28;20049;-62
2021/05/25 08:29:52;;;;;;;0.90;0.50;;;;;;;11.66;64.72;100263.25;5013315;28;20053;-59
2021/05/25 08:32:19;;;;;;;1.73;0.40;;;;;;;11.75;65.26;100265.41;5013459;28;20074;-60
2021/05/25 08:34:45;;;;;;;1.05;0.77;;;;;;;11.74;64.41;100275.19;4988170;28;20058;-60
2021/05/25 08:37:12;;;;;;;0.40;0.40;;;;;;;11.67;64.60;100270.25;5016488;28;20054;-61
2021/05/25 08:39:42;;;;;;;0.60;0.38;;;;;;;11.68;64.60;100271.97;4995724;28;20053;-61
2021/05/25 08:42:29;;;;;;;0.70;0.50;;;;;;;11.69;65.01;100285.16;5002237;28;20056;-59
2021/05/25 08:45:04;;;;;;;1.08;0.40;;;;;;;11.69;65.48;100285.16;4999741;28;20045;-59
2021/05/25 08:47:43;;;;;;;0.70;0.40;;;;;;;11.71;65.53;100290.38;5018205;28;20068;-60
2021/05/25 08:50:16;;;;;;;1.02;0.80;;;;;;;11.65;65.81;100288.09;5014039;28;20045;-61
2021/05/25 08:52:48;;;;;;;0.52;0.30;;;;;;;11.53;66.96;100292.22;5004710;28;20042;-62
2021/05/25 08:55:15;;;;;;;1.25;0.43;;;;;;;11.51;66.86;100291.44;5017898;28;20057;-62
2021/05/25 08:57:45;;;;;;;1.33;0.70;;;;;;;11.55;67.02;100293.00;5016121;28;20109;-62
2021/05/25 09:00:30;;;;;;;;;;;;;;;11.57;67.46;100291.97;4999792;28;20052;-60
2021/05/25 09:02:57;;;;;;;0.50;0.30;;;;;;;11.50;67.33;100295.88;4996738;28;20342;-60
2021/05/25 09:05:25;;;;;;;0.65;0.30;;;;;;;11.65;66.35;100298.69;5016746;28;20081;-59
2021/05/25 09:07:57;;;;;;;0.88;0.50;;;;;;;11.87;66.05;100299.28;5014218;28;20382;-60
2021/05/25 09:10:43;;;;;;;0.45;0.40;;;;;;;12.22;65.07;100295.56;4997942;28;20060;-59
2021/05/25 09:13:24;;;;;;;1.02;0.30;;;;;;;12.87;62.39;100292.78;5016354;28;20054;-61
2021/05/25 09:16:03;;;;;;;1.52;0.40;;;;;;;13.12;60.54;100290.38;5016260;28;20054;-61
2021/05/25 09:18:47;;;;;;;0.75;0.30;;;;;;;13.13;59.39;100288.59;5009575;28;20054;-61
2021/05/25 09:21:37;;;;;;;1.70;0.30;;;;;;;12.89;59.06;100296.22;5000721;28;20045;-61
2021/05/25 09:24:09;;;;;;;1.48;0.40;;;;;;;12.76;61.24;100301.34;5017618;28;20080;-60
2021/05/25 09:26:48;;;;;;;0.98;0.40;;;;;;;12.71;62.56;100302.56;5011820;28;20073;-61
2021/05/25 09:29:20;;;;;;;0.20;0.20;;;;;;;12.58;62.92;100313.06;5008509;28;20052;-62
2021/05/25 09:31:51;;;;;;;0.95;0.30;;;;;;;12.32;63.93;100305.66;5011226;28;20908;-61
2021/05/25 09:34:21;;;;;;;1.33;0.20;;;;;;;12.17;64.78;100313.53;4998685;28;20045;-60
2021/05/25 09:37:05;;;;;;;0.68;0.30;;;;;;;12.07;64.82;100301.72;5016130;28;20161;-59
2021/05/25 09:39:33;;;;;;;1.55;0.40;;;;;;;12.00;64.31;100305.63;5014183;28;20045;-60
2021/05/25 09:42:17;;;;;;;0.90;0.90;;;;;;;11.89;64.39;100314.19;5003189;28;20649;-59
2021/05/25 09:45:05;;;;;;;1.40;0.93;;;;;;;11.91;64.17;100303.50;4990766;28;20140;-59
2021/05/25 09:47:53;;;;;;;0.38;0.35;;;;;;;11.86;63.26;100298.41;5006965;28;20050;-59
2021/05/25 09:50:22;;;;;;;0.52;0.45;;;;;;;11.80;64.04;100298.78;5000664;28;20050;-60
2021/05/25 09:53:20;;;;;;;0.90;0.38;;;;;;;11.78;63.90;100300.63;5012929;28;20117;-59
2021/05/25 09:56:00;;;;;;;0.85;0.30;;;;;;;11.85;63.43;100307.31;5010652;28;20073;-61
2021/05/25 09:58:33;;;;;;;0.45;0.30;;;;;;;11.89;64.68;100308.88;5013037;28;20169;-59
2021/05/25 10:01:05;;;;;;;2.70;0.50;;;;;;;11.82;65.11;100319.88;5000275;28;20044;-60
2021/05/25 10:03:35;;;;;;;1.33;0.30;;;;;;;11.87;66.24;100328.47;5011022;28;20042;-60
2021/05/25 10:06:02;;;;;;;1.60;0.68;;;;;;;11.96;65.21;100335.09;5012885;28;20482;-58
2021/05/25 10:08:29;;;;;;;0.73;0.38;;;;;;;11.89;66.74;100348.69;5015090;28;20136;-61
2021/05/25 10:10:59;;;;;;;1.20;0.50;;;;;;;11.68;66.99;100341.81;5019243;28;20287;-63
2021/05/25 10:13:28;;;;;;;2.47;0.55;;;;;;;11.60;68.48;100341.38;5018888;28;20058;-61
2021/05/25 10:15:56;;;;;;;1.17;0.40;;;;;;;11.80;68.96;100340.34;5008951;28;20049;-60
2021/05/25 10:18:36;;;;;;;1.80;0.52;;;;;;;11.98;69.35;100341.16;5018129;28;20050;-60
2021/05/25 10:21:09;;;;;;;3.30;0.90;;;;;;;12.16;68.72;100343.69;5017703;28;20062;-60
2021/05/25 10:23:37;;;;;;;2.83;0.77;;;;;;;12.27;68.36;100346.63;5010546;28;20089;-61
2021/05/25 10:26:23;;;;;;;2.60;0.70;;;;;;;12.26;67.60;100344.06;5020463;28;20041;-62
2021/05/25 10:28:52;;;;;;;0.93;0.68;;;;;;;12.37;68.67;100346.09;5008346;28;20045;-61
2021/05/25 10:31:35;;;;;;;1.30;0.40;;;;;;;12.37;68.05;100330.19;5008582;28;20085;-62
2021/05/25 10:34:11;;;;;;;0.80;0.50;;;;;;;12.59;65.83;100341.34;5003691;28;20118;-60
2021/05/25 10:36:59;;;;;;;0.77;0.43;;;;;;;12.78;66.35;100341.97;5009622;28;20077;-59
2021/05/25 10:39:39;;;;;;;1.83;0.50;;;;;;;12.84;66.50;100346.97;5009866;28;20117;-60
2021/05/25 10:42:21;;;;;;;1.52;0.70;;;;;;;12.79;65.33;100350.81;5012665;28;20048;-61
2021/05/25 10:44:56;;;;;;;1.80;0.98;;;;;;;12.69;66.35;100350.47;4993375;28;20472;-59
2021/05/25 10:47:37;;;;;;;0.93;0.50;;;;;;;12.50;66.74;100341.81;4999796;28;20125;-59
2021/05/25 10:50:28;;;;;;;1.02;0.50;;;;;;;12.37;67.63;100364.69;4983155;28;20051;-60
2021/05/25 10:53:01;;;;;;;1.13;0.55;;;;;;;12.45;65.17;100359.81;5005945;28;20156;-59
2021/05/25 10:55:44;;;;;;;1.27;0.57;;;;;;;12.65;66.34;100371.03;5003944;28;20069;-59
2021/05/25 10:58:17;;;;;;;0.80;0.60;;;;;;;13.08;64.75;100359.78;4998120;28;20532;-62
2021/05/25 11:00:43;;;;;;;1.08;0.75;;;;;;;13.42;64.65;100366.66;5005246;28;20046;-60
2021/05/25 11:03:13;;;;;;;2.00;0.80;;;;;;;13.34;62.98;100385.75;4990987;28;21873;-60
2021/05/25 11:05:45;;;;;;;0.77;0.60;;;;;;;13.09;64.66;100385.41;5002390;28;20116;-60
2021/05/25 11:08:17;;;;;;;2.22;0.68;;;;;;;12.76;65.92;100391.69;4999931;28;20054;-61
2021/05/25 11:10:45;;;;;;;2.88;0.90;;;;;;;12.63;67.27;100391.53;5008491;28;20524;-60
2021/05/25 11:13:14;;;;;;;2.17;0.77;;;;;;;12.53;67.93;100389.47;5005668;28;20050;-59
2021/05/25 11:16:06;;;;;;;3.10;1.00;;;;;;;12.57;69.33;100404.31;4996549;28;20057;-60
2021/05/25 11:24:50;;;;;;;0.93;0.85;;;;;;;12.57;69.56;100410.47;5005552;28;20160;-60
2021/05/25 11:27:43;;;;;;;2.70;1.00;;;;;;;12.66;71.04;100398.47;5012474;28;20508;-59
2021/05/25 11:30:22;;;;;;;1.42;0.95;;;;;;;12.91;71.00;100392.63;5016571;28;20085;-61
2021/05/25 11:32:52;;;;;;;2.13;1.10;;;;;;;13.00;69.35;100394.78;5009759;28;20109;-59
2021/05/25 11:35:26;;;;;;;1.80;1.00;;;;;;;13.13;70.94;100410.88;4998700;28;20080;-59
2021/05/25 11:37:57;;;;;;;2.50;0.90;;;;;;;13.19;67.75;100418.56;5001344;28;20050;-58
2021/05/25 11:40:28;;;;;;;2.25;0.80;;;;;;;13.09;66.53;100412.84;5013567;28;20054;-60
2021/05/25 11:42:55;;;;;;;1.50;0.70;;;;;;;13.21;64.35;100412.22;5006419;28;20049;-59
2021/05/25 11:45:25;;;;;;;2.03;0.80;;;;;;;13.40;65.87;100398.69;5000752;28;20054;-60
2021/05/25 11:47:57;;;;;;;4.13;2.03;;;;;;;13.58;64.64;100424.22;5005645;28;20081;-58
2021/05/25 11:50:27;;;;;;;1.60;0.60;;;;;;;13.70;63.67;100411.97;5006925;28;20093;-60
2021/05/25 11:53:01;;;;;;;1.20;0.70;;;;;;;13.81;63.35;100417.53;5005856;28;20061;-58
2021/05/25 11:55:29;;;;;;;5.13;0.90;;;;;;;13.98;63.89;100424.50;5012496;28;23233;-61
2021/05/25 11:57:55;;;;;;;0.70;0.70;;;;;;;14.23;62.39;100431.84;5010453;28;20121;-58
2021/05/25 12:00:25;;;;;;;1.40;0.90;;;;;;;14.66;62.73;100428.25;5013069;28;20054;-62
2021/05/25 12:02:53;;;;;;;1.25;0.65;;;;;;;14.94;61.22;100419.34;5006218;28;20143;-59